Centerlisle, New York
Current Conditions -  °F | °C
As of 10:53 PM on Sunday 25 Jan 2015 (Local Time) from KBGM Reporting Station
Clear Clear  
Wind Chill: -3°   Ceiling: Unl
Heat Index:   Visibility: 10mi
Dew Point:   Wind: 7mph
Humidity: 73%   Direction: 40°NE
Pressure: 29.94"   Gusts: NA
Location:  42.3343°N, 76.0474°W
Report Text: KBGM 260353Z 04006KT 10SM CLR M13/M17 A2994 RMK AO2 SLP170 T11331172
Loading
Personal Weather Stations






























Interactive Weather Map New forecast layout! Learn more

10-Day Weather Forecast

Advertisements
Track Severe Weather on mobile